TimeCDT,TemperatureF,Dew PointF,Humidity,Sea Level PressureIn,VisibilityMPH,Wind Direction,Wind SpeedMPH,Gust SpeedMPH,PrecipitationIn,Events,Conditions,WindDirDegrees,DateUTC
12:55 AM,77.9,72.9,84,30.08,10.0,ESE,12.7,17.3,N/A,,Overcast,110,2012-10-13 05:55:00
1:15 AM,77.9,72.9,84,30.08,10.0,ESE,10.4,-,N/A,,Overcast,120,2012-10-13 06:15:00
1:35 AM,77.9,73.0,85,30.07,10.0,ESE,9.2,-,N/A,,Overcast,120,2012-10-13 06:35:00
1:55 AM,77.9,73.0,85,30.07,10.0,ESE,12.7,18.4,N/A,,Overcast,120,2012-10-13 06:55:00
2:15 AM,77.9,73.0,85,30.06,10.0,ESE,13.8,18.4,N/A,,Overcast,120,2012-10-13 07:15:00
2:35 AM,77.9,73.0,85,30.06,10.0,SE,13.8,18.4,N/A,,Overcast,130,2012-10-13 07:35:00
2:55 AM,77.9,73.0,85,30.06,10.0,ESE,10.4,-,N/A,,Overcast,120,2012-10-13 07:55:00
3:15 AM,77.9,72.9,84,30.05,10.0,SE,16.1,21.9,N/A,,Overcast,130,2012-10-13 08:15:00
3:35 AM,77.9,72.5,83,30.05,10.0,SE,13.8,18.4,N/A,,Overcast,130,2012-10-13 08:35:00
3:55 AM,77.4,72.5,85,30.05,10.0,SE,15.0,19.6,N/A,,Overcast,130,2012-10-13 08:55:00
4:15 AM,77.2,72.0,84,30.05,10.0,SE,13.8,18.4,N/A,,Overcast,140,2012-10-13 09:15:00
4:35 AM,77.2,71.2,82,30.05,10.0,ESE,11.5,-,N/A,,Overcast,120,2012-10-13 09:35:00
4:55 AM,77.0,70.3,80,30.05,10.0,SE,12.7,20.7,N/A,,Overcast,130,2012-10-13 09:55:00
5:15 AM,76.8,70.0,79,30.05,10.0,SE,9.2,-,N/A,,Overcast,130,2012-10-13 10:15:00
5:35 AM,76.6,70.7,82,30.04,10.0,SE,11.5,16.1,N/A,,Overcast,130,2012-10-13 10:35:00
5:55 AM,76.5,71.2,84,30.04,10.0,SE,11.5,-,N/A,,Overcast,130,2012-10-13 10:55:00
6:15 AM,76.3,71.4,85,30.04,10.0,SE,15.0,19.6,N/A,,Overcast,140,2012-10-13 11:15:00
6:35 AM,76.1,71.4,85,30.05,10.0,SE,13.8,18.4,N/A,,Mostly Cloudy,130,2012-10-13 11:35:00
6:55 AM,76.3,71.6,85,30.05,10.0,SE,10.4,16.1,N/A,,Overcast,140,2012-10-13 11:55:00
7:15 AM,76.1,71.6,86,30.04,10.0,SE,12.7,18.4,N/A,,Overcast,140,2012-10-13 12:15:00
7:35 AM,76.1,72.0,87,30.04,10.0,SE,10.4,-,N/A,,Overcast,140,2012-10-13 12:35:00
7:55 AM,75.9,72.0,87,30.04,10.0,SE,8.1,-,N/A,,Overcast,140,2012-10-13 12:55:00
8:15 AM,75.9,72.1,88,30.04,10.0,SE,8.1,-,N/A,,Overcast,140,2012-10-13 13:15:00
8:55 AM,76.6,72.5,87,30.06,10.0,SSE,11.5,16.1,N/A,,Overcast,150,2012-10-13 13:55:00
9:35 AM,78.1,72.7,83,30.05,10.0,SSE,12.7,-,N/A,,Overcast,150,2012-10-13 14:35:00
9:55 AM,79.2,72.9,81,30.05,10.0,SSE,15.0,18.4,N/A,,Overcast,150,2012-10-13 14:55:00
10:35 AM,81.7,72.7,74,30.04,10.0,SSE,10.4,16.1,N/A,,Scattered Clouds,160,2012-10-13 15:35:00
10:55 AM,83.7,72.0,68,30.04,10.0,SSE,12.7,21.9,N/A,,Scattered Clouds,150,2012-10-13 15:55:00
11:15 AM,85.1,71.8,64,30.03,10.0,SSE,16.1,20.7,N/A,,Scattered Clouds,150,2012-10-13 16:15:00
11:35 AM,86.9,70.5,58,30.03,10.0,SSE,19.6,25.3,N/A,,Scattered Clouds,150,2012-10-13 16:35:00
11:55 AM,87.6,70.0,56,30.02,10.0,SSE,13.8,25.3,N/A,,Scattered Clouds,150,2012-10-13 16:55:00
12:35 PM,89.1,69.3,52,30.00,10.0,SE,19.6,26.5,N/A,,Scattered Clouds,140,2012-10-13 17:35:00
12:55 PM,90.0,69.1,50,29.99,10.0,SSE,20.7,26.5,N/A,,Scattered Clouds,150,2012-10-13 17:55:00
1:15 PM,90.7,67.6,47,29.98,10.0,SSE,20.7,26.5,N/A,,Scattered Clouds,150,2012-10-13 18:15:00
1:35 PM,91.4,67.5,45,29.97,10.0,SSE,19.6,24.2,N/A,,Scattered Clouds,160,2012-10-13 18:35:00
1:55 PM,91.6,67.8,46,29.96,10.0,SSE,19.6,23.0,N/A,,Scattered Clouds,150,2012-10-13 18:55:00
2:15 PM,92.1,67.6,44,29.95,10.0,SSE,13.8,24.2,N/A,,Scattered Clouds,150,2012-10-13 19:15:00
2:35 PM,92.8,66.7,42,29.93,10.0,SE,16.1,31.1,N/A,,Mostly Cloudy,140,2012-10-13 19:35:00
2:55 PM,92.7,66.2,42,29.92,10.0,SSE,16.1,27.6,N/A,,Scattered Clouds,150,2012-10-13 19:55:00
3:15 PM,93.6,66.4,41,29.91,10.0,SSE,18.4,24.2,N/A,,Scattered Clouds,150,2012-10-13 20:15:00
3:35 PM,93.4,66.7,41,29.91,10.0,SE,17.3,24.2,N/A,,Scattered Clouds,140,2012-10-13 20:35:00
3:55 PM,93.2,66.7,42,29.90,10.0,SSE,13.8,25.3,N/A,,Scattered Clouds,150,2012-10-13 20:55:00
4:15 PM,93.6,67.3,42,29.90,10.0,SSE,16.1,26.5,N/A,,Scattered Clouds,160,2012-10-13 21:15:00
4:35 PM,93.6,66.9,41,29.89,10.0,SSE,18.4,25.3,N/A,,Scattered Clouds,150,2012-10-13 21:35:00
4:55 PM,93.0,66.9,42,29.88,10.0,SSE,16.1,23.0,N/A,,Scattered Clouds,150,2012-10-13 21:55:00
5:15 PM,92.7,66.6,42,29.88,10.0,SSE,18.4,24.2,N/A,,Clear,150,2012-10-13 22:15:00
5:55 PM,90.9,67.8,47,29.88,10.0,SE,16.1,25.3,N/A,,Scattered Clouds,140,2012-10-13 22:55:00
6:15 PM,89.8,68.0,49,29.88,10.0,SE,18.4,-,N/A,,Scattered Clouds,140,2012-10-13 23:15:00
6:35 PM,89.1,67.8,49,29.88,10.0,SE,18.4,24.2,N/A,,Scattered Clouds,140,2012-10-13 23:35:00
7:35 PM,86.0,67.5,54,29.90,10.0,SE,18.4,23.0,N/A,,Clear,140,2012-10-14 00:35:00
7:55 PM,85.1,67.8,56,29.91,10.0,SE,15.0,-,N/A,,Clear,130,2012-10-14 00:55:00
8:35 PM,83.5,67.8,59,29.93,10.0,SE,15.0,21.9,N/A,,Clear,130,2012-10-14 01:35:00
9:15 PM,81.9,67.6,62,29.94,10.0,SE,15.0,23.0,N/A,,Clear,130,2012-10-14 02:15:00
9:35 PM,81.0,68.0,65,29.95,10.0,SE,15.0,20.7,N/A,,Clear,130,2012-10-14 02:35:00
9:55 PM,80.4,68.4,67,29.95,10.0,SE,16.1,20.7,N/A,,Clear,130,2012-10-14 02:55:00
10:15 PM,79.9,68.9,69,29.96,10.0,SE,16.1,21.9,N/A,,Clear,130,2012-10-14 03:15:00
11:15 PM,78.8,71.1,77,29.96,10.0,SE,15.0,20.7,N/A,,Scattered Clouds,140,2012-10-14 04:15:00
11:35 PM,78.8,71.2,78,29.96,10.0,SE,17.3,24.2,N/A,,Mostly Cloudy,140,2012-10-14 04:35:00